Time,TemperatureF,DewpointF,PressureIn,WindDirection,WindDirectionDegrees,WindSpeedMPH,WindSpeedGustMPH,Humidity,HourlyPrecipIn,Conditions,Clouds,dailyrainin,SoftwareType,DateUTC
2014-12-27 00:22:00,52.0,46.0,30.11,South,178,1.0,7.0,80,0.00,,,0.00,,2014-12-27 06:22:00,
2014-12-27 00:42:00,52.0,47.0,30.10,SSE,167,0.0,6.0,82,0.00,,,0.00,,2014-12-27 06:42:00,
2014-12-27 00:52:00,51.0,46.0,30.10,South,178,2.0,7.0,83,0.00,,,0.00,,2014-12-27 06:52:00,
2014-12-27 01:12:00,52.0,47.0,30.10,SSW,209,1.0,8.0,82,0.00,,,0.00,,2014-12-27 07:12:00,
2014-12-27 01:22:00,52.0,47.0,30.11,South,169,0.0,7.0,82,0.00,,,0.00,,2014-12-27 07:22:00,
2014-12-27 01:52:00,52.0,47.0,30.11,South,169,0.0,8.0,83,0.00,,,0.00,,2014-12-27 07:52:00,
2014-12-27 02:12:00,52.0,47.0,30.10,South,186,2.0,6.0,82,0.00,,,0.00,,2014-12-27 08:12:00,
2014-12-27 02:22:00,52.0,47.0,30.10,SSE,157,1.0,7.0,82,0.00,,,0.00,,2014-12-27 08:22:00,
2014-12-27 02:42:00,52.0,47.0,30.10,SE,124,2.0,9.0,82,0.00,,,0.00,,2014-12-27 08:42:00,
2014-12-27 02:52:00,52.0,47.0,30.10,SE,133,0.0,8.0,82,0.00,,,0.00,,2014-12-27 08:52:00,
2014-12-27 03:12:00,52.0,47.0,30.10,SSE,164,2.0,8.0,82,0.00,,,0.00,,2014-12-27 09:12:00,
2014-12-27 03:22:00,52.0,47.0,30.09,South,187,1.0,8.0,82,0.00,,,0.00,,2014-12-27 09:22:00,
2014-12-27 03:44:00,52.0,47.0,30.10,SSE,167,3.0,7.0,83,0.00,,,0.00,,2014-12-27 09:44:00,
2014-12-27 03:53:00,52.0,47.0,30.10,South,190,0.0,5.0,84,0.00,,,0.00,,2014-12-27 09:53:00,
2014-12-27 04:13:00,52.0,47.0,30.09,SSE,162,1.0,7.0,84,0.00,,,0.00,,2014-12-27 10:13:00,
2014-12-27 04:23:00,52.0,47.0,30.09,South,173,0.0,6.0,84,0.00,,,0.00,,2014-12-27 10:23:00,
2014-12-27 04:43:00,53.0,48.0,30.09,SSW,196,0.0,7.0,84,0.00,,,0.00,,2014-12-27 10:43:00,
2014-12-27 04:53:00,52.0,48.0,30.09,SSW,199,3.0,8.0,85,0.00,,,0.00,,2014-12-27 10:53:00,
2014-12-27 05:13:00,53.0,48.0,30.09,South,179,0.0,7.0,84,0.01,,,0.01,,2014-12-27 11:13:00,
2014-12-27 05:22:00,53.0,48.0,30.10,SE,138,4.0,9.0,83,0.01,,,0.01,,2014-12-27 11:22:00,
2014-12-27 05:52:00,54.0,48.0,30.09,SSW,197,1.0,8.0,81,0.01,,,0.01,,2014-12-27 11:52:00,
2014-12-27 06:12:00,54.0,48.0,30.09,South,181,0.0,7.0,81,0.00,,,0.01,,2014-12-27 12:12:00,
2014-12-27 06:22:00,54.0,49.0,30.10,South,175,2.0,8.0,82,0.00,,,0.01,,2014-12-27 12:22:00,
2014-12-27 06:42:00,54.0,49.0,30.10,South,188,1.0,8.0,82,0.00,,,0.01,,2014-12-27 12:42:00,
2014-12-27 06:52:00,54.0,49.0,30.10,South,184,0.0,7.0,82,0.00,,,0.01,,2014-12-27 12:52:00,
2014-12-27 07:22:00,54.0,49.0,30.11,ESE,115,0.0,5.0,82,0.00,,,0.01,,2014-12-27 13:22:00,
2014-12-27 07:42:00,54.0,49.0,30.11,SW,217,5.0,10.0,83,0.00,,,0.01,,2014-12-27 13:42:00,
2014-12-27 07:52:00,54.0,49.0,30.11,South,173,1.0,9.0,83,0.00,,,0.01,,2014-12-27 13:52:00,
2014-12-27 08:11:00,54.0,49.0,30.11,SSW,195,2.0,9.0,83,0.00,,,0.01,,2014-12-27 14:11:00,
2014-12-27 08:22:00,54.0,49.0,30.11,SSW,195,2.0,9.0,83,0.00,,,0.01,,2014-12-27 14:22:00,
2014-12-27 08:32:00,54.0,49.0,30.11,SSW,195,2.0,9.0,83,0.00,,,0.01,,2014-12-27 14:32:00,
2014-12-27 10:54:00,54.0,52.0,30.13,West,275,0.0,0.0,92,0.07,,,0.08,,2014-12-27 16:54:00,
2014-12-27 11:12:00,54.0,52.0,30.13,NW,312,0.0,0.0,93,0.08,,,0.10,,2014-12-27 17:12:00,
2014-12-27 11:22:00,54.0,52.0,30.12,WNW,286,0.0,0.0,93,0.06,,,0.11,,2014-12-27 17:22:00,
2014-12-27 11:43:00,54.0,52.0,30.11,WNW,286,0.0,0.0,93,0.04,,,0.11,,2014-12-27 17:43:00,
2014-12-27 11:52:00,54.0,52.0,30.09,South,170,0.0,0.0,94,0.03,,,0.11,,2014-12-27 17:52:00,
2014-12-27 12:13:00,54.0,52.0,30.09,South,169,0.0,0.0,94,0.01,,,0.11,,2014-12-27 18:13:00,